Time;durP1;ratioP1;P1;durP2;ratioP2;P2;SDS_P1;SDS_P2;PMS_P1;PMS_P2;Temp;Humidity;BMP_temperature;BMP_pressure;BME280_temperature;BME280_humidity;BME280_pressure;Samples;Min_cycle;Max_cycle;Signal;HPM_P1;HPM_P2
2023/09/28 00:03:02;;;;;;;10.75;3.85;;;17.50;93.20;;;;;;5087170;28;20044;-81
2023/09/28 00:05:29;;;;;;;9.52;3.65;;;17.50;93.00;;;;;;5056772;28;20047;-81
2023/09/28 00:07:59;;;;;;;9.85;3.72;;;17.50;93.30;;;;;;5069034;28;20059;-81
2023/09/28 00:10:26;;;;;;;7.25;3.35;;;17.40;93.30;;;;;;5072951;28;20052;-81
2023/09/28 00:12:54;;;;;;;8.90;3.63;;;17.40;93.40;;;;;;5076387;28;20036;-80
2023/09/28 00:15:26;;;;;;;7.72;3.55;;;17.40;93.60;;;;;;5067795;28;20044;-80
2023/09/28 00:17:54;;;;;;;6.40;3.35;;;17.40;94.00;;;;;;5080318;28;20097;-80
2023/09/28 00:20:22;;;;;;;7.05;3.30;;;17.30;94.00;;;;;;5082780;28;20068;-81
2023/09/28 00:22:52;;;;;;;7.65;3.33;;;17.20;94.40;;;;;;5060837;28;20068;-80
2023/09/28 00:25:22;;;;;;;7.70;4.03;;;17.20;94.50;;;;;;5074680;28;20392;-80
2023/09/28 00:27:51;;;;;;;6.60;3.67;;;17.20;94.60;;;;;;5090831;27;20110;-80
2023/09/28 00:30:21;;;;;;;8.90;3.53;;;17.10;94.80;;;;;;5082953;28;20050;-80
2023/09/28 00:32:51;;;;;;;7.05;3.85;;;17.10;95.10;;;;;;5073553;28;20053;-80
2023/09/28 00:35:19;;;;;;;7.75;3.60;;;17.00;95.20;;;;;;5082873;28;20171;-80
2023/09/28 00:37:48;;;;;;;11.95;4.32;;;16.90;95.40;;;;;;5078493;28;20139;-80
2023/09/28 00:40:20;;;;;;;8.05;4.15;;;16.90;95.60;;;;;;5076398;28;20040;-80
2023/09/28 00:42:52;;;;;;;17.38;4.55;;;16.90;95.80;;;;;;5069370;28;20052;-80
2023/09/28 00:45:21;;;;;;;11.93;4.40;;;17.00;96.00;;;;;;5064053;28;20059;-80
2023/09/28 00:47:54;;;;;;;8.25;3.78;;;17.00;95.70;;;;;;5075592;28;20069;-80
2023/09/28 00:50:22;;;;;;;9.68;4.25;;;16.90;96.00;;;;;;5075466;28;20044;-80
2023/09/28 00:52:55;;;;;;;11.93;4.20;;;16.90;96.40;;;;;;5086269;28;20042;-80
2023/09/28 00:55:24;;;;;;;7.90;3.88;;;16.90;96.20;;;;;;5074768;28;20141;-80
2023/09/28 00:57:51;;;;;;;10.85;4.00;;;16.90;96.20;;;;;;5055977;28;20044;-81
2023/09/28 01:00:20;;;;;;;7.07;4.13;;;16.90;97.00;;;;;;5073047;28;20088;-80
2023/09/28 01:02:52;;;;;;;9.40;3.83;;;16.90;96.80;;;;;;5073163;28;20047;-81
2023/09/28 01:05:30;;;;;;;9.48;3.78;;;16.90;96.60;;;;;;5065915;28;20059;-81
2023/09/28 01:08:11;;;;;;;9.02;3.92;;;16.90;96.30;;;;;;5073539;28;22358;-80
2023/09/28 01:10:40;;;;;;;7.32;3.47;;;16.90;96.20;;;;;;5081947;28;20098;-81
2023/09/28 01:13:20;;;;;;;9.15;3.53;;;16.90;96.40;;;;;;5058846;28;20052;-80
2023/09/28 01:15:49;;;;;;;8.45;4.47;;;16.90;96.40;;;;;;5059102;28;20053;-80
2023/09/28 01:18:19;;;;;;;6.68;3.58;;;16.90;96.70;;;;;;5064636;28;20060;-82
2023/09/28 01:20:48;;;;;;;10.50;4.18;;;16.80;96.30;;;;;;5084459;28;20072;-80
2023/09/28 01:23:15;;;;;;;8.15;3.95;;;16.80;96.10;;;;;;5073324;28;22667;-81
2023/09/28 01:25:47;;;;;;;7.25;3.65;;;16.90;96.20;;;;;;5081655;28;22489;-80
2023/09/28 01:28:18;;;;;;;7.32;3.20;;;16.80;96.00;;;;;;5076406;28;20506;-80
2023/09/28 01:30:46;;;;;;;9.13;3.60;;;16.80;95.80;;;;;;5076513;28;20056;-81
2023/09/28 01:33:14;;;;;;;8.93;3.60;;;16.90;95.90;;;;;;5073352;28;20047;-80
2023/09/28 01:35:41;;;;;;;9.80;4.05;;;16.90;96.10;;;;;;5066250;28;20064;-80
2023/09/28 01:38:34;;;;;;;8.20;3.85;;;16.90;96.00;;;;;;5065574;28;20094;-81
2023/09/28 01:41:02;;;;;;;6.13;3.95;;;16.90;96.20;;;;;;5079878;28;20045;-80
2023/09/28 01:43:30;;;;;;;9.02;4.25;;;16.90;96.10;;;;;;5079907;28;20052;-80
2023/09/28 01:45:57;;;;;;;7.70;3.40;;;16.80;96.20;;;;;;5080756;28;20406;-80
2023/09/28 01:48:24;;;;;;;7.47;3.60;;;16.80;96.70;;;;;;5077247;28;20072;-80
2023/09/28 01:50:51;;;;;;;7.28;3.42;;;16.80;97.00;;;;;;5064678;28;20062;-81
2023/09/28 01:53:18;;;;;;;7.88;3.92;;;16.70;97.20;;;;;;5074500;28;20059;-80
2023/09/28 01:55:50;;;;;;;6.70;3.85;;;16.70;97.50;;;;;;5064596;28;20142;-80
2023/09/28 01:58:17;;;;;;;7.53;3.78;;;16.70;97.40;;;;;;5072929;28;20449;-80
2023/09/28 02:00:46;;;;;;;9.63;4.40;;;16.60;97.50;;;;;;5062418;28;20064;-81
2023/09/28 02:03:14;;;;;;;7.47;3.47;;;16.60;97.60;;;;;;5071287;28;20048;-81
2023/09/28 02:05:42;;;;;;;8.65;4.57;;;16.50;97.80;;;;;;5089925;27;20048;-80
2023/09/28 02:08:10;;;;;;;7.80;4.10;;;16.50;98.00;;;;;;5075405;28;21028;-80
2023/09/28 02:10:38;;;;;;;8.93;3.92;;;16.50;98.10;;;;;;5083577;28;20059;-80
2023/09/28 02:13:05;;;;;;;11.85;4.30;;;16.50;98.00;;;;;;5066235;28;20052;-80
2023/09/28 02:15:32;;;;;;;8.38;4.50;;;16.50;98.10;;;;;;5072933;28;20032;-80
2023/09/28 02:18:00;;;;;;;11.68;4.30;;;16.40;98.20;;;;;;5066316;28;20043;-81
2023/09/28 02:20:29;;;;;;;8.40;4.10;;;16.40;98.40;;;;;;5074760;28;20052;-80
2023/09/28 02:22:57;;;;;;;9.15;3.75;;;16.40;98.60;;;;;;5060004;28;20052;-81
2023/09/28 02:25:26;;;;;;;7.97;3.65;;;16.40;98.60;;;;;;5072140;28;20060;-80
2023/09/28 02:27:53;;;;;;;8.07;4.30;;;16.40;98.60;;;;;;5089677;28;20060;-81
2023/09/28 02:30:23;;;;;;;7.55;3.72;;;16.40;98.50;;;;;;5067624;28;20132;-80
2023/09/28 02:32:52;;;;;;;8.27;4.53;;;16.30;98.70;;;;;;5066934;28;20051;-80
2023/09/28 02:35:20;;;;;;;10.45;4.47;;;16.30;98.70;;;;;;5082860;28;20096;-80
2023/09/28 02:37:48;;;;;;;9.13;4.30;;;16.30;99.00;;;;;;5079118;28;20107;-81
2023/09/28 02:40:17;;;;;;;7.25;4.03;;;16.30;99.90;;;;;;5072071;28;20469;-81
2023/09/28 02:42:48;;;;;;;10.70;4.65;;;16.30;99.90;;;;;;5077058;28;20076;-81
2023/09/28 02:45:16;;;;;;;8.85;4.47;;;16.20;99.90;;;;;;5077900;28;20040;-80
2023/09/28 02:47:47;;;;;;;8.13;4.60;;;16.20;99.90;;;;;;5100692;28;20051;-80
2023/09/28 02:50:21;;;;;;;8.93;4.68;;;16.20;99.90;;;;;;5079796;28;20072;-81
2023/09/28 02:52:49;;;;;;;8.27;4.63;;;16.10;99.90;;;;;;5075193;28;20048;-81
2023/09/28 02:55:17;;;;;;;6.47;3.88;;;16.10;99.90;;;;;;5066267;28;20143;-81
2023/09/28 02:57:47;;;;;;;7.68;4.45;;;16.10;99.90;;;;;;5072688;28;20402;-81
2023/09/28 03:02:46;;;;;;;10.82;4.90;;;16.00;99.90;;;;;;5078547;28;20045;-80
2023/09/28 03:05:16;;;;;;;9.95;4.72;;;16.00;99.90;;;;;;5072795;28;20057;-80
2023/09/28 03:07:45;;;;;;;10.15;4.75;;;15.90;99.90;;;;;;5078688;28;20532;-80
2023/09/28 03:10:13;;;;;;;8.68;4.50;;;15.90;99.90;;;;;;5063571;28;20044;-80
2023/09/28 03:12:40;;;;;;;9.45;4.38;;;15.90;99.90;;;;;;5072836;28;20135;-80
2023/09/28 03:15:10;;;;;;;9.27;4.63;;;15.90;99.90;;;;;;5080497;28;20100;-80
2023/09/28 03:17:39;;;;;;;9.85;4.55;;;15.90;99.90;;;;;;5089732;28;22445;-80
2023/09/28 03:20:13;;;;;;;12.07;4.65;;;15.90;99.90;;;;;;5085776;28;20536;-80
2023/09/28 03:22:43;;;;;;;8.65;4.68;;;15.80;99.90;;;;;;5065760;28;20055;-80
2023/09/28 03:25:18;;;;;;;10.48;4.85;;;15.80;99.90;;;;;;5063855;28;20147;-80
2023/09/28 03:27:48;;;;;;;9.90;5.32;;;15.70;99.90;;;;;;5082443;28;20044;-80
2023/09/28 03:30:17;;;;;;;9.02;4.85;;;15.80;99.90;;;;;;5057050;28;20862;-80
2023/09/28 03:32:47;;;;;;;7.82;4.28;;;15.80;99.90;;;;;;5088948;28;22447;-80
2023/09/28 03:35:16;;;;;;;9.10;4.80;;;15.80;99.90;;;;;;5089781;28;20060;-80
2023/09/28 03:37:44;;;;;;;11.93;5.53;;;15.70;99.90;;;;;;5070874;28;20090;-80
2023/09/28 03:40:13;;;;;;;20.25;5.68;;;15.70;99.90;;;;;;5080141;28;20066;-80
2023/09/28 03:42:42;;;;;;;9.07;5.00;;;15.70;99.90;;;;;;5087129;28;20045;-80
2023/09/28 03:45:11;;;;;;;8.88;5.32;;;15.70;99.90;;;;;;5087976;28;20131;-80
2023/09/28 03:47:39;;;;;;;9.77;4.80;;;15.60;99.90;;;;;;5072106;28;20075;-80
2023/09/28 03:50:09;;;;;;;11.85;5.55;;;15.60;99.90;;;;;;5082064;28;20052;-80
2023/09/28 03:52:37;;;;;;;11.38;4.78;;;15.60;99.90;;;;;;5069239;28;20040;-80
2023/09/28 03:55:09;;;;;;;8.85;5.45;;;15.60;99.90;;;;;;5066328;28;22566;-80
2023/09/28 03:57:37;;;;;;;9.98;4.95;;;15.50;99.90;;;;;;5093971;28;20052;-80
2023/09/28 04:00:15;;;;;;;9.63;5.38;;;15.50;99.90;;;;;;5068831;28;20135;-80
2023/09/28 04:02:45;;;;;;;10.93;5.28;;;15.50;99.90;;;;;;5062298;28;20045;-80
2023/09/28 04:05:17;;;;;;;10.32;5.30;;;15.50;99.90;;;;;;5062556;28;20114;-80
2023/09/28 04:07:45;;;;;;;9.27;5.65;;;15.40;99.90;;;;;;5084194;28;20045;-80
2023/09/28 04:10:13;;;;;;;12.43;5.47;;;15.40;99.90;;;;;;5095756;28;20040;-80
2023/09/28 04:12:40;;;;;;;8.73;5.40;;;15.40;99.90;;;;;;5071794;28;20055;-80
2023/09/28 04:15:08;;;;;;;10.63;5.43;;;15.40;99.90;;;;;;5078824;28;20042;-80
2023/09/28 04:17:36;;;;;;;11.98;5.70;;;15.50;99.90;;;;;;5092194;28;22660;-80
2023/09/28 04:20:09;;;;;;;10.83;4.83;;;15.50;99.90;;;;;;5081082;28;20044;-80
2023/09/28 04:22:37;;;;;;;7.45;5.07;;;15.50;99.90;;;;;;5076079;28;20047;-80
2023/09/28 04:25:05;;;;;;;11.27;5.10;;;15.40;99.90;;;;;;5079118;28;20035;-80
2023/09/28 04:27:32;;;;;;;8.57;5.07;;;15.40;99.90;;;;;;5085384;28;20051;-80
2023/09/28 04:30:00;;;;;;;9.35;5.57;;;15.40;99.90;;;;;;5070251;28;20498;-80
2023/09/28 04:32:27;;;;;;;9.68;5.18;;;15.40;99.90;;;;;;5067976;28;20041;-80
2023/09/28 04:34:55;;;;;;;9.73;5.72;;;15.40;99.90;;;;;;5082283;28;20044;-80
2023/09/28 04:37:23;;;;;;;9.90;5.05;;;15.40;99.90;;;;;;5078405;28;20055;-80
2023/09/28 04:39:50;;;;;;;11.90;5.68;;;15.30;99.90;;;;;;5076395;28;20067;-80
2023/09/28 04:42:20;;;;;;;13.02;6.00;;;15.30;99.90;;;;;;5081712;28;20052;-80
2023/09/28 04:44:49;;;;;;;10.23;5.78;;;15.20;99.90;;;;;;5081281;28;20068;-80
2023/09/28 04:47:17;;;;;;;8.05;4.85;;;15.20;99.90;;;;;;5086087;28;20114;-80
2023/09/28 04:49:45;;;;;;;15.48;6.25;;;15.20;99.90;;;;;;5064847;28;20068;-80
2023/09/28 04:52:13;;;;;;;10.55;5.72;;;15.20;99.90;;;;;;5073832;28;22461;-80
2023/09/28 04:54:42;;;;;;;12.05;6.25;;;15.20;99.90;;;;;;5080649;28;20040;-80
2023/09/28 04:57:09;;;;;;;12.23;6.05;;;15.20;99.90;;;;;;5076515;28;20063;-80
2023/09/28 04:59:38;;;;;;;13.77;6.05;;;15.20;99.90;;;;;;5096358;28;20066;-80
2023/09/28 05:02:07;;;;;;;13.40;5.78;;;15.20;99.90;;;;;;5065690;28;20048;-80
2023/09/28 05:04:34;;;;;;;10.88;5.50;;;15.10;99.90;;;;;;5074705;28;20045;-80
2023/09/28 05:07:04;;;;;;;10.25;6.45;;;15.10;99.90;;;;;;5079491;28;20115;-80
2023/09/28 05:09:32;;;;;;;9.95;5.68;;;15.20;99.90;;;;;;5064233;28;20060;-80
2023/09/28 05:12:01;;;;;;;14.15;6.07;;;15.20;99.90;;;;;;5067762;28;20048;-80
2023/09/28 05:14:31;;;;;;;15.18;6.40;;;15.20;99.90;;;;;;5067691;28;20167;-80
2023/09/28 05:16:59;;;;;;;12.35;6.28;;;15.20;99.90;;;;;;5064741;28;20673;-80
2023/09/28 05:19:27;;;;;;;12.20;6.78;;;15.20;99.90;;;;;;5071619;28;20044;-80
2023/09/28 05:21:54;;;;;;;9.38;5.40;;;15.30;99.90;;;;;;5078948;28;20048;-80
2023/09/28 05:24:21;;;;;;;13.68;6.28;;;15.30;99.90;;;;;;5072294;28;20051;-80
2023/09/28 05:26:49;;;;;;;12.13;6.28;;;15.30;99.90;;;;;;5077819;28;20054;-80
2023/09/28 05:29:16;;;;;;;13.27;5.88;;;15.40;99.90;;;;;;5081063;28;20141;-80
2023/09/28 05:31:43;;;;;;;9.98;5.88;;;15.50;99.90;;;;;;5066854;28;20516;-80
2023/09/28 05:34:10;;;;;;;12.63;6.68;;;15.50;99.90;;;;;;5067292;28;20143;-80
2023/09/28 05:36:38;;;;;;;13.80;6.70;;;15.50;99.90;;;;;;5077677;28;20040;-80
2023/09/28 05:39:05;;;;;;;13.48;6.80;;;15.50;99.90;;;;;;5062216;28;20086;-81
2023/09/28 05:41:32;;;;;;;13.50;6.55;;;15.50;99.90;;;;;;5066114;28;20495;-80
2023/09/28 05:43:59;;;;;;;13.15;6.47;;;15.60;99.90;;;;;;5077126;28;20123;-80
2023/09/28 05:46:27;;;;;;;16.30;6.93;;;15.70;99.90;;;;;;5092129;28;20049;-81
2023/09/28 05:48:54;;;;;;;12.18;6.70;;;15.70;99.90;;;;;;5056583;28;20044;-84
2023/09/28 05:51:21;;;;;;;14.10;6.95;;;15.80;99.90;;;;;;5088678;28;20052;-84
2023/09/28 05:53:52;;;;;;;17.00;7.32;;;15.80;99.90;;;;;;5068354;28;20120;-83
2023/09/28 05:56:21;;;;;;;14.88;7.03;;;15.80;99.90;;;;;;5079717;28;20055;-84
2023/09/28 05:58:48;;;;;;;16.92;6.80;;;15.90;99.90;;;;;;5082243;28;20044;-83
2023/09/28 06:01:17;;;;;;;14.90;7.82;;;16.10;99.90;;;;;;5071879;28;20593;-84
2023/09/28 06:03:45;;;;;;;13.48;8.23;;;16.10;99.90;;;;;;5074641;28;20048;-83
2023/09/28 06:06:17;;;;;;;17.00;8.88;;;16.10;99.90;;;;;;5068229;28;20059;-84
2023/09/28 06:08:46;;;;;;;17.63;7.60;;;16.20;99.90;;;;;;5081922;28;20062;-82
2023/09/28 06:11:15;;;;;;;19.42;8.73;;;16.20;99.90;;;;;;5073864;28;20986;-83
2023/09/28 06:13:44;;;;;;;20.80;8.48;;;16.20;99.90;;;;;;5072097;28;20121;-83
2023/09/28 06:16:31;;;;;;;21.92;8.98;;;16.30;99.90;;;;;;5076468;28;20494;-83
2023/09/28 06:18:59;;;;;;;23.52;9.48;;;16.30;99.90;;;;;;5079806;28;20037;-83
2023/09/28 06:21:26;;;;;;;16.35;8.98;;;16.40;99.90;;;;;;5070323;28;20055;-83
2023/09/28 06:23:53;;;;;;;19.45;9.05;;;16.50;99.90;;;;;;5060945;28;20798;-84
2023/09/28 06:26:20;;;;;;;15.35;7.82;;;16.50;99.90;;;;;;5079661;27;20043;-84
2023/09/28 06:29:08;;;;;;;16.45;8.15;;;16.60;99.90;;;;;;5048617;28;20041;-81
2023/09/28 06:31:36;;;;;;;15.77;7.88;;;16.70;99.90;;;;;;5062495;28;20055;-83
2023/09/28 06:34:03;;;;;;;13.75;7.20;;;16.80;99.90;;;;;;5067758;28;20497;-83
2023/09/28 06:36:30;;;;;;;11.65;5.88;;;16.90;99.90;;;;;;5058101;28;20388;-84
2023/09/28 06:39:00;;;;;;;12.07;6.40;;;17.00;99.90;;;;;;5057567;28;20052;-84
2023/09/28 06:41:28;;;;;;;11.95;6.75;;;17.00;99.90;;;;;;5052909;28;20130;-84
2023/09/28 06:43:55;;;;;;;15.40;6.32;;;17.00;99.90;;;;;;5078150;28;20086;-81
2023/09/28 06:46:23;;;;;;;11.70;5.93;;;17.10;99.90;;;;;;5057991;28;22463;-81
2023/09/28 06:48:50;;;;;;;8.88;5.50;;;17.20;99.90;;;;;;5077148;28;20056;-84
2023/09/28 06:51:20;;;;;;;20.52;6.20;;;17.30;99.90;;;;;;5056602;28;20150;-83
2023/09/28 06:53:47;;;;;;;10.43;5.38;;;17.40;99.90;;;;;;5055870;28;20050;-83
2023/09/28 06:56:14;;;;;;;12.05;5.57;;;17.50;99.90;;;;;;5068820;28;22440;-84
2023/09/28 06:58:44;;;;;;;9.88;5.57;;;17.50;99.90;;;;;;5060640;28;20462;-84
2023/09/28 07:01:12;;;;;;;9.85;5.40;;;17.60;99.90;;;;;;5066758;28;20105;-84
2023/09/28 07:03:41;;;;;;;8.32;4.55;;;17.70;99.90;;;;;;5074701;28;20048;-83
2023/09/28 07:06:09;;;;;;;13.20;4.80;;;17.80;99.90;;;;;;5071092;28;20521;-82
2023/09/28 07:08:36;;;;;;;8.48;4.45;;;17.90;99.90;;;;;;5083855;28;20067;-83
2023/09/28 07:11:05;;;;;;;7.97;4.47;;;18.00;99.90;;;;;;5069244;28;20485;-83
2023/09/28 07:13:37;;;;;;;11.23;5.43;;;18.20;99.90;;;;;;5043538;28;20082;-84
2023/09/28 07:16:07;;;;;;;7.18;4.45;;;18.40;99.90;;;;;;5078792;28;20950;-84
2023/09/28 07:18:36;;;;;;;9.30;5.07;;;18.40;99.90;;;;;;5071752;28;20048;-83
2023/09/28 07:21:03;;;;;;;10.30;5.18;;;18.50;99.90;;;;;;5071690;28;20072;-84
2023/09/28 07:23:30;;;;;;;11.40;4.65;;;18.50;99.80;;;;;;5062102;28;20503;-84
2023/09/28 07:25:57;;;;;;;8.65;4.53;;;18.60;99.50;;;;;;5079865;28;20326;-82
2023/09/28 07:28:25;;;;;;;9.15;4.95;;;18.70;99.00;;;;;;5080092;28;20087;-85
2023/09/28 07:30:53;;;;;;;9.13;5.35;;;18.80;98.60;;;;;;5067916;28;20054;-83
2023/09/28 07:33:20;;;;;;;9.70;4.82;;;18.80;98.30;;;;;;5075758;28;20131;-83
2023/09/28 07:35:48;;;;;;;10.38;4.50;;;19.00;97.90;;;;;;5088902;27;22926;-81
2023/09/28 07:38:16;;;;;;;8.07;4.40;;;19.00;97.70;;;;;;5084724;28;20036;-84
2023/09/28 07:40:44;;;;;;;10.38;5.20;;;19.10;97.50;;;;;;5058703;28;20056;-83
2023/09/28 07:43:14;;;;;;;9.10;5.45;;;19.20;97.00;;;;;;5071124;28;20059;-84
2023/09/28 07:45:42;;;;;;;8.52;4.18;;;19.20;96.70;;;;;;5081525;28;20116;-82
2023/09/28 07:48:11;;;;;;;10.95;4.50;;;19.40;96.90;;;;;;5082007;28;20410;-83
2023/09/28 07:50:38;;;;;;;7.35;4.50;;;19.50;96.50;;;;;;5072045;28;20044;-79
2023/09/28 07:53:05;;;;;;;8.95;4.70;;;19.50;95.80;;;;;;5067295;28;20418;-84
2023/09/28 07:55:33;;;;;;;7.03;4.28;;;19.60;95.40;;;;;;5079212;28;20056;-84
2023/09/28 07:58:00;;;;;;;10.93;4.53;;;19.70;95.00;;;;;;5070841;28;20040;-84
2023/09/28 08:00:47;;;;;;;7.18;4.30;;;19.80;95.20;;;;;;5064682;28;20139;-82
2023/09/28 08:03:15;;;;;;;8.57;4.78;;;19.90;95.00;;;;;;5072763;28;20403;-82
2023/09/28 08:05:42;;;;;;;9.25;4.53;;;19.90;94.90;;;;;;5073214;28;20052;-83
2023/09/28 08:08:10;;;;;;;11.38;4.70;;;20.00;94.60;;;;;;5071812;28;20094;-84
2023/09/28 08:10:44;;;;;;;8.27;4.45;;;20.00;94.30;;;;;;5080448;28;20051;-83
2023/09/28 08:13:11;;;;;;;9.52;4.65;;;20.10;94.60;;;;;;5063129;28;20059;-82
2023/09/28 08:15:40;;;;;;;6.72;4.25;;;20.20;94.00;;;;;;5061485;28;20064;-83
2023/09/28 08:18:08;;;;;;;10.68;5.60;;;20.20;93.70;;;;;;5058812;28;20933;-82
2023/09/28 08:20:37;;;;;;;7.82;5.25;;;20.30;93.60;;;;;;5071675;28;20044;-83
2023/09/28 08:23:04;;;;;;;7.82;4.60;;;20.30;93.40;;;;;;5060487;28;21074;-83
2023/09/28 08:25:33;;;;;;;8.30;4.63;;;20.40;93.20;;;;;;5064460;28;20052;-81
2023/09/28 08:28:00;;;;;;;8.25;4.55;;;20.50;93.00;;;;;;5074550;28;20101;-83
2023/09/28 08:30:27;;;;;;;11.48;4.50;;;20.50;92.70;;;;;;5071003;28;20106;-82
2023/09/28 08:32:54;;;;;;;7.20;4.13;;;20.60;92.40;;;;;;5089399;28;20048;-82
2023/09/28 08:35:22;;;;;;;7.07;3.95;;;20.60;91.60;;;;;;5066608;28;20079;-82
2023/09/28 08:37:50;;;;;;;6.18;4.03;;;20.80;92.00;;;;;;5075022;28;20518;-83
2023/09/28 08:40:17;;;;;;;9.98;4.38;;;20.90;92.00;;;;;;5066538;28;20044;-83
2023/09/28 08:42:47;;;;;;;21.38;5.00;;;21.00;91.10;;;;;;5077018;28;20412;-83
2023/09/28 08:45:16;;;;;;;8.82;4.10;;;21.00;90.80;;;;;;5055826;28;22545;-83
2023/09/28 08:47:48;;;;;;;6.65;3.90;;;21.10;90.90;;;;;;5070903;28;20053;-83
2023/09/28 08:50:33;;;;;;;9.27;4.38;;;21.10;90.10;;;;;;5078671;28;20120;-80
2023/09/28 08:53:02;;;;;;;8.35;3.78;;;21.10;90.00;;;;;;5075272;28;20049;-81
2023/09/28 08:55:32;;;;;;;7.88;3.83;;;21.20;90.10;;;;;;5071187;28;20048;-83
2023/09/28 08:58:02;;;;;;;7.43;3.88;;;21.30;90.20;;;;;;5087237;28;20064;-83
2023/09/28 09:00:29;;;;;;;8.38;4.05;;;21.50;90.40;;;;;;5079039;28;20518;-83
2023/09/28 09:02:58;;;;;;;8.13;4.20;;;21.60;89.60;;;;;;5076025;28;20048;-82
2023/09/28 09:05:29;;;;;;;7.93;3.80;;;21.50;88.90;;;;;;5063001;28;20110;-84
2023/09/28 09:07:59;;;;;;;9.82;3.97;;;21.60;89.20;;;;;;5079118;27;20206;-82
2023/09/28 09:10:28;;;;;;;10.45;4.20;;;21.60;89.10;;;;;;5072977;28;20056;-83
2023/09/28 09:12:55;;;;;;;7.70;3.65;;;21.70;88.30;;;;;;5063953;28;20055;-83
2023/09/28 09:15:24;;;;;;;6.90;4.13;;;21.80;88.10;;;;;;5063577;28;20139;-83
2023/09/28 09:18:03;;;;;;;11.05;4.15;;;21.90;88.20;;;;;;5075347;28;20040;-83
2023/09/28 09:20:30;;;;;;;8.32;4.38;;;21.90;88.10;;;;;;5062840;28;20147;-82
2023/09/28 09:23:14;;;;;;;8.88;3.95;;;22.00;87.10;;;;;;5064269;28;20051;-82
2023/09/28 09:25:53;;;;;;;6.82;3.22;;;22.20;85.90;;;;;;5082806;28;20071;-81
2023/09/28 09:28:29;;;;;;;9.18;3.60;;;22.20;86.20;;;;;;5071369;28;20164;-82
2023/09/28 09:30:57;;;;;;;8.43;3.90;;;22.30;86.70;;;;;;5077118;28;20118;-83
2023/09/28 09:33:28;;;;;;;11.00;3.63;;;22.30;87.50;;;;;;5078594;28;20048;-81
2023/09/28 09:35:56;;;;;;;5.80;3.33;;;22.40;87.00;;;;;;5074308;28;20080;-82
2023/09/28 09:38:30;;;;;;;6.45;3.80;;;22.40;86.20;;;;;;5070125;28;20048;-83
2023/09/28 09:41:04;;;;;;;8.55;4.00;;;22.30;84.30;;;;;;5050642;28;22650;-83
2023/09/28 09:43:34;;;;;;;11.13;4.00;;;22.30;85.50;;;;;;5085708;28;20045;-83
2023/09/28 09:46:05;;;;;;;8.02;4.05;;;22.30;86.00;;;;;;5063039;28;22426;-83
2023/09/28 09:48:44;;;;;;;7.85;3.83;;;22.40;86.80;;;;;;5076285;28;20055;-82
2023/09/28 09:51:17;;;;;;;7.63;3.83;;;22.40;85.70;;;;;;5091116;28;20046;-82
2023/09/28 09:53:45;;;;;;;4.97;3.33;;;22.60;86.90;;;;;;5070861;28;20040;-82
2023/09/28 09:56:17;;;;;;;8.13;4.00;;;22.70;86.70;;;;;;5059982;28;20102;-82
2023/09/28 09:58:49;;;;;;;7.05;3.60;;;22.80;85.30;;;;;;5067014;28;20474;-83
2023/09/28 10:01:29;;;;;;;7.88;3.70;;;22.70;84.40;;;;;;5048837;28;22844;-83
2023/09/28 10:03:59;;;;;;;5.55;3.83;;;22.80;83.90;;;;;;5044591;28;20136;-83
2023/09/28 10:06:28;;;;;;;5.97;2.85;;;22.80;84.70;;;;;;5033704;28;20086;-79
2023/09/28 10:08:55;;;;;;;7.07;3.65;;;23.00;84.60;;;;;;5021672;28;20072;-82
2023/09/28 10:11:24;;;;;;;6.72;3.22;;;23.00;81.30;;;;;;5024119;28;20099;-80
2023/09/28 10:13:52;;;;;;;7.38;3.40;;;22.90;82.20;;;;;;5056624;28;21038;-82
2023/09/28 10:16:20;;;;;;;9.10;3.45;;;22.90;82.90;;;;;;5056929;28;20607;-83
2023/09/28 10:18:49;;;;;;;6.90;3.83;;;23.20;83.40;;;;;;5056022;28;20049;-82
2023/09/28 10:21:16;;;;;;;4.82;3.58;;;23.30;82.00;;;;;;5072328;28;22494;-81
2023/09/28 10:23:44;;;;;;;6.82;3.60;;;23.20;80.70;;;;;;5041966;28;20048;-82
2023/09/28 10:26:15;;;;;;;6.03;3.63;;;23.10;79.70;;;;;;5056166;28;20095;-82
2023/09/28 10:29:06;;;;;;;6.78;3.67;;;23.10;81.00;;;;;;5056900;28;20049;-82
2023/09/28 10:31:37;;;;;;;5.68;2.95;;;23.30;81.60;;;;;;5022837;28;20049;-83
2023/09/28 10:34:27;;;;;;;6.70;3.50;;;23.20;79.50;;;;;;5043178;28;20637;-80
2023/09/28 10:37:18;;;;;;;9.68;3.35;;;23.30;79.20;;;;;;5053993;28;20046;-82
2023/09/28 10:39:54;;;;;;;6.80;3.13;;;23.30;79.60;;;;;;5043554;28;20990;-82
2023/09/28 10:42:24;;;;;;;9.55;3.47;;;23.30;78.30;;;;;;5054223;28;20053;-82
2023/09/28 10:44:55;;;;;;;7.25;3.33;;;23.30;79.60;;;;;;5022559;28;20045;-81
2023/09/28 10:47:23;;;;;;;6.03;3.60;;;23.50;78.80;;;;;;5073149;28;20420;-80
2023/09/28 10:50:04;;;;;;;6.80;3.30;;;23.40;77.90;;;;;;5037679;28;20049;-80
2023/09/28 10:52:31;;;;;;;6.65;3.25;;;23.40;77.40;;;;;;5031205;28;20411;-81
2023/09/28 10:54:59;;;;;;;6.63;3.33;;;23.40;76.90;;;;;;5042399;28;22527;-82
2023/09/28 10:57:31;;;;;;;9.80;3.20;;;23.40;76.70;;;;;;5047749;28;20048;-83
2023/09/28 11:00:00;;;;;;;7.50;3.65;;;23.40;76.10;;;;;;5025685;28;20053;-82
2023/09/28 11:02:28;;;;;;;6.60;3.30;;;23.40;77.50;;;;;;5034069;28;20091;-82
2023/09/28 11:04:59;;;;;;;8.55;3.67;;;23.50;77.10;;;;;;5037550;28;20052;-81
2023/09/28 11:07:27;;;;;;;9.98;3.50;;;23.60;78.80;;;;;;5020874;28;20412;-82
2023/09/28 11:09:54;;;;;;;10.27;3.47;;;23.70;79.90;;;;;;5037311;28;22505;-82
2023/09/28 11:12:22;;;;;;;5.35;3.05;;;23.80;78.00;;;;;;5027895;28;20115;-83
2023/09/28 11:14:51;;;;;;;7.20;3.20;;;23.80;79.30;;;;;;5026707;28;20136;-82
2023/09/28 11:17:19;;;;;;;5.78;3.72;;;23.80;80.00;;;;;;5010791;28;20060;-82
2023/09/28 11:19:48;;;;;;;4.95;2.92;;;23.80;79.40;;;;;;5028797;28;20045;-81
2023/09/28 11:22:15;;;;;;;4.28;2.88;;;23.80;79.00;;;;;;5029744;28;20118;-80
2023/09/28 11:24:43;;;;;;;7.15;3.42;;;24.00;78.40;;;;;;5001181;28;20923;-80
2023/09/28 11:27:11;;;;;;;5.05;3.53;;;24.10;79.20;;;;;;5012907;28;20103;-80
2023/09/28 11:29:39;;;;;;;6.82;3.03;;;24.10;78.30;;;;;;5029039;28;20046;-79
2023/09/28 11:32:06;;;;;;;6.45;3.20;;;24.20;76.60;;;;;;5020706;28;20765;-80
2023/09/28 11:34:38;;;;;;;6.32;2.72;;;24.20;76.30;;;;;;5020256;28;20103;-80
2023/09/28 11:37:13;;;;;;;7.53;3.10;;;24.30;75.90;;;;;;5028479;28;20055;-81
2023/09/28 11:39:41;;;;;;;5.32;3.63;;;24.20;76.30;;;;;;5012078;28;20049;-81
2023/09/28 11:42:09;;;;;;;6.80;3.55;;;24.20;75.70;;;;;;4994609;28;20036;-81
2023/09/28 11:44:36;;;;;;;5.72;3.15;;;24.20;76.90;;;;;;5010127;28;20065;-82
2023/09/28 11:47:07;;;;;;;6.63;3.25;;;24.20;74.80;;;;;;5009143;28;20503;-81
2023/09/28 11:49:40;;;;;;;5.93;2.88;;;24.20;75.90;;;;;;5000891;28;20045;-81
2023/09/28 11:52:08;;;;;;;7.95;3.20;;;24.20;74.60;;;;;;5010456;28;20041;-80
2023/09/28 11:54:35;;;;;;;5.38;3.33;;;24.10;74.50;;;;;;5038222;28;20060;-82
2023/09/28 11:57:07;;;;;;;5.13;3.22;;;24.20;75.70;;;;;;5025219;28;20497;-81
2023/09/28 11:59:36;;;;;;;5.82;3.45;;;24.20;74.60;;;;;;5014139;28;20068;-81
2023/09/28 12:02:05;;;;;;;9.27;3.20;;;24.20;75.00;;;;;;5005217;28;20042;-82
2023/09/28 12:04:33;;;;;;;8.15;4.00;;;24.20;74.50;;;;;;5005560;28;20076;-82
2023/09/28 12:07:01;;;;;;;5.70;2.97;;;24.30;75.20;;;;;;5029212;28;20080;-82
2023/09/28 12:09:30;;;;;;;5.03;2.83;;;24.40;73.80;;;;;;5005106;28;20045;-82
2023/09/28 12:11:58;;;;;;;8.20;2.75;;;24.40;75.00;;;;;;4998074;28;20501;-82
2023/09/28 12:14:26;;;;;;;6.15;3.08;;;24.30;73.70;;;;;;5001002;28;20135;-81
2023/09/28 12:16:54;;;;;;;6.75;3.13;;;24.30;74.70;;;;;;5007573;28;20143;-81
2023/09/28 12:19:21;;;;;;;4.35;2.65;;;24.40;72.90;;;;;;5020003;28;20049;-81
2023/09/28 12:21:50;;;;;;;7.03;3.25;;;24.40;74.00;;;;;;5023823;28;20523;-82
2023/09/28 12:24:17;;;;;;;9.02;3.80;;;24.40;73.60;;;;;;5008909;28;20053;-81
2023/09/28 12:26:45;;;;;;;6.55;3.50;;;24.40;72.90;;;;;;5005416;28;20192;-81
2023/09/28 12:29:12;;;;;;;12.93;2.92;;;24.30;72.40;;;;;;5022792;28;20136;-82
2023/09/28 12:31:39;;;;;;;6.45;2.92;;;24.20;71.40;;;;;;5021269;28;20140;-82
2023/09/28 12:34:06;;;;;;;9.68;3.55;;;24.20;72.70;;;;;;5023602;28;20057;-82
2023/09/28 12:36:34;;;;;;;6.15;3.05;;;24.40;73.00;;;;;;5009615;28;20151;-81
2023/09/28 12:39:01;;;;;;;7.57;3.22;;;24.30;73.50;;;;;;5025148;28;20058;-79
2023/09/28 12:41:28;;;;;;;5.00;2.83;;;24.30;71.00;;;;;;5007038;28;20056;-81
2023/09/28 12:43:56;;;;;;;7.63;3.08;;;24.30;71.10;;;;;;5006261;28;20049;-80
2023/09/28 12:46:23;;;;;;;7.85;3.10;;;24.30;71.20;;;;;;5010492;28;20041;-81
2023/09/28 12:48:52;;;;;;;4.55;2.80;;;24.30;71.20;;;;;;5011516;28;20046;-80
2023/09/28 12:51:19;;;;;;;6.10;3.10;;;24.30;69.10;;;;;;5018763;28;20049;-84
2023/09/28 12:53:47;;;;;;;6.43;3.22;;;24.40;70.80;;;;;;5011271;28;20783;-82
2023/09/28 12:56:16;;;;;;;5.28;2.95;;;24.40;70.90;;;;;;5002510;28;22121;-81
2023/09/28 12:58:43;;;;;;;6.22;3.08;;;24.40;71.30;;;;;;5023439;28;20554;-82